sensor_id;sensor_type;location;lat;lon;timestamp;temperature;humidity
43043;DHT22;28667;50.758;6.096;2022-10-16T00:00:35;13.00;99.90
43043;DHT22;28667;50.758;6.096;2022-10-16T00:03:03;13.00;99.90
43043;DHT22;28667;50.758;6.096;2022-10-16T00:05:29;13.00;99.90
43043;DHT22;28667;50.758;6.096;2022-10-16T00:07:55;13.00;99.90
43043;DHT22;28667;50.758;6.096;2022-10-16T00:10:22;12.90;99.90
43043;DHT22;28667;50.758;6.096;2022-10-16T00:12:49;12.90;99.90
43043;DHT22;28667;50.758;6.096;2022-10-16T00:15:15;12.80;99.90
43043;DHT22;28667;50.758;6.096;2022-10-16T00:17:41;12.80;99.90
43043;DHT22;28667;50.758;6.096;2022-10-16T00:20:08;12.80;99.90
43043;DHT22;28667;50.758;6.096;2022-10-16T00:22:33;12.80;99.90
43043;DHT22;28667;50.758;6.096;2022-10-16T00:25:00;12.70;99.90
43043;DHT22;28667;50.758;6.096;2022-10-16T00:27:26;12.70;99.90
43043;DHT22;28667;50.758;6.096;2022-10-16T00:29:52;12.70;99.90
43043;DHT22;28667;50.758;6.096;2022-10-16T00:32:19;12.70;99.90
43043;DHT22;28667;50.758;6.096;2022-10-16T00:34:46;12.60;99.90
43043;DHT22;28667;50.758;6.096;2022-10-16T00:37:13;12.60;99.90
43043;DHT22;28667;50.758;6.096;2022-10-16T00:39:40;12.50;99.90
43043;DHT22;28667;50.758;6.096;2022-10-16T00:42:06;12.50;99.90
43043;DHT22;28667;50.758;6.096;2022-10-16T00:44:56;12.50;99.90
43043;DHT22;28667;50.758;6.096;2022-10-16T00:47:36;12.50;99.90
43043;DHT22;28667;50.758;6.096;2022-10-16T00:52:32;12.40;99.90
43043;DHT22;28667;50.758;6.096;2022-10-16T00:54:58;12.50;99.90
43043;DHT22;28667;50.758;6.096;2022-10-16T00:57:26;12.40;99.90
43043;DHT22;28667;50.758;6.096;2022-10-16T00:59:53;12.40;99.90
43043;DHT22;28667;50.758;6.096;2022-10-16T01:02:20;12.40;99.90
43043;DHT22;28667;50.758;6.096;2022-10-16T01:04:50;12.40;99.90
43043;DHT22;28667;50.758;6.096;2022-10-16T01:07:53;12.40;99.90
43043;DHT22;28667;50.758;6.096;2022-10-16T01:10:35;12.30;99.90
43043;DHT22;28667;50.758;6.096;2022-10-16T01:15:43;12.40;99.90
43043;DHT22;28667;50.758;6.096;2022-10-16T01:18:35;12.40;99.90
43043;DHT22;28667;50.758;6.096;2022-10-16T01:21:11;12.40;99.90
43043;DHT22;28667;50.758;6.096;2022-10-16T01:26:23;12.40;99.90
43043;DHT22;28667;50.758;6.096;2022-10-16T01:29:06;12.40;99.90
43043;DHT22;28667;50.758;6.096;2022-10-16T01:31:39;12.40;99.90
43043;DHT22;28667;50.758;6.096;2022-10-16T01:34:15;12.40;99.90
43043;DHT22;28667;50.758;6.096;2022-10-16T01:36:49;12.40;99.90
43043;DHT22;28667;50.758;6.096;2022-10-16T01:39:20;12.40;99.90
43043;DHT22;28667;50.758;6.096;2022-10-16T01:42:00;12.40;99.90
43043;DHT22;28667;50.758;6.096;2022-10-16T01:44:32;12.50;99.90
43043;DHT22;28667;50.758;6.096;2022-10-16T01:47:00;12.50;99.90
43043;DHT22;28667;50.758;6.096;2022-10-16T01:49:30;12.50;99.90
43043;DHT22;28667;50.758;6.096;2022-10-16T01:51:59;12.60;99.90
43043;DHT22;28667;50.758;6.096;2022-10-16T01:54:29;12.60;99.90
43043;DHT22;28667;50.758;6.096;2022-10-16T01:56:57;12.60;99.90
43043;DHT22;28667;50.758;6.096;2022-10-16T01:59:26;12.60;99.90
43043;DHT22;28667;50.758;6.096;2022-10-16T02:01:59;12.60;99.90
43043;DHT22;28667;50.758;6.096;2022-10-16T02:04:33;12.60;99.90
43043;DHT22;28667;50.758;6.096;2022-10-16T02:07:00;12.60;99.90
43043;DHT22;28667;50.758;6.096;2022-10-16T02:09:27;12.70;99.90
43043;DHT22;28667;50.758;6.096;2022-10-16T02:11:57;12.70;99.90
43043;DHT22;28667;50.758;6.096;2022-10-16T02:14:26;12.70;99.90
43043;DHT22;28667;50.758;6.096;2022-10-16T02:16:52;12.70;99.90
43043;DHT22;28667;50.758;6.096;2022-10-16T02:19:18;12.70;99.90
43043;DHT22;28667;50.758;6.096;2022-10-16T02:24:33;12.70;99.90
43043;DHT22;28667;50.758;6.096;2022-10-16T02:27:10;12.70;99.90
43043;DHT22;28667;50.758;6.096;2022-10-16T02:29:44;12.70;99.90
43043;DHT22;28667;50.758;6.096;2022-10-16T02:32:16;12.70;99.90
43043;DHT22;28667;50.758;6.096;2022-10-16T02:34:45;12.60;99.90
43043;DHT22;28667;50.758;6.096;2022-10-16T02:37:12;12.60;99.90
43043;DHT22;28667;50.758;6.096;2022-10-16T02:39:40;12.60;99.90
43043;DHT22;28667;50.758;6.096;2022-10-16T02:42:11;12.50;99.90
43043;DHT22;28667;50.758;6.096;2022-10-16T02:44:37;12.50;99.90
43043;DHT22;28667;50.758;6.096;2022-10-16T02:47:04;12.50;99.90
43043;DHT22;28667;50.758;6.096;2022-10-16T02:49:30;12.50;99.90
43043;DHT22;28667;50.758;6.096;2022-10-16T02:51:56;12.50;99.90
43043;DHT22;28667;50.758;6.096;2022-10-16T02:54:22;12.50;99.90
43043;DHT22;28667;50.758;6.096;2022-10-16T02:56:48;12.50;99.90
43043;DHT22;28667;50.758;6.096;2022-10-16T02:59:14;12.50;99.90
43043;DHT22;28667;50.758;6.096;2022-10-16T03:01:40;12.50;99.90
43043;DHT22;28667;50.758;6.096;2022-10-16T03:04:06;12.50;99.90
43043;DHT22;28667;50.758;6.096;2022-10-16T03:06:32;12.50;99.90
43043;DHT22;28667;50.758;6.096;2022-10-16T03:08:59;12.40;99.90
43043;DHT22;28667;50.758;6.096;2022-10-16T03:11:25;12.40;99.90
43043;DHT22;28667;50.758;6.096;2022-10-16T03:13:52;12.40;99.90
43043;DHT22;28667;50.758;6.096;2022-10-16T03:16:18;12.40;99.90
43043;DHT22;28667;50.758;6.096;2022-10-16T03:18:48;12.40;99.90
43043;DHT22;28667;50.758;6.096;2022-10-16T03:21:14;12.40;99.90
43043;DHT22;28667;50.758;6.096;2022-10-16T03:23:40;12.40;99.90
43043;DHT22;28667;50.758;6.096;2022-10-16T03:26:06;12.40;99.90
43043;DHT22;28667;50.758;6.096;2022-10-16T03:28:32;12.40;99.90
43043;DHT22;28667;50.758;6.096;2022-10-16T03:30:58;12.30;99.90
43043;DHT22;28667;50.758;6.096;2022-10-16T03:33:24;12.30;99.90
43043;DHT22;28667;50.758;6.096;2022-10-16T03:35:54;12.30;99.90
43043;DHT22;28667;50.758;6.096;2022-10-16T03:38:21;12.30;99.90
43043;DHT22;28667;50.758;6.096;2022-10-16T03:40:47;12.30;99.90
43043;DHT22;28667;50.758;6.096;2022-10-16T03:43:13;12.30;99.90
43043;DHT22;28667;50.758;6.096;2022-10-16T03:45:39;12.30;99.90
43043;DHT22;28667;50.758;6.096;2022-10-16T03:48:05;12.20;99.90
43043;DHT22;28667;50.758;6.096;2022-10-16T03:50:31;12.20;99.90
43043;DHT22;28667;50.758;6.096;2022-10-16T03:52:57;12.20;99.90
43043;DHT22;28667;50.758;6.096;2022-10-16T03:55:24;12.20;99.90
43043;DHT22;28667;50.758;6.096;2022-10-16T03:57:50;12.20;99.90
43043;DHT22;28667;50.758;6.096;2022-10-16T04:00:16;12.20;99.90
43043;DHT22;28667;50.758;6.096;2022-10-16T04:02:42;12.10;99.90
43043;DHT22;28667;50.758;6.096;2022-10-16T04:05:09;12.10;99.90
43043;DHT22;28667;50.758;6.096;2022-10-16T04:07:35;12.10;99.90
43043;DHT22;28667;50.758;6.096;2022-10-16T04:10:02;12.10;99.90
43043;DHT22;28667;50.758;6.096;2022-10-16T04:12:28;12.10;99.90
43043;DHT22;28667;50.758;6.096;2022-10-16T04:14:54;12.00;99.90
43043;DHT22;28667;50.758;6.096;2022-10-16T04:17:20;12.00;99.90
43043;DHT22;28667;50.758;6.096;2022-10-16T04:19:46;12.00;99.90
43043;DHT22;28667;50.758;6.096;2022-10-16T04:22:12;11.90;99.90
43043;DHT22;28667;50.758;6.096;2022-10-16T04:24:38;11.90;99.90
43043;DHT22;28667;50.758;6.096;2022-10-16T04:27:04;11.90;99.90
43043;DHT22;28667;50.758;6.096;2022-10-16T04:29:30;11.90;99.90
43043;DHT22;28667;50.758;6.096;2022-10-16T04:31:56;11.80;99.90
43043;DHT22;28667;50.758;6.096;2022-10-16T04:34:22;11.80;99.90
43043;DHT22;28667;50.758;6.096;2022-10-16T04:36:48;11.80;99.90
43043;DHT22;28667;50.758;6.096;2022-10-16T04:39:15;11.80;99.90
43043;DHT22;28667;50.758;6.096;2022-10-16T04:41:42;11.70;99.90
43043;DHT22;28667;50.758;6.096;2022-10-16T04:44:08;11.70;99.90
43043;DHT22;28667;50.758;6.096;2022-10-16T04:46:34;11.70;99.90
43043;DHT22;28667;50.758;6.096;2022-10-16T04:49:00;11.70;99.90
43043;DHT22;28667;50.758;6.096;2022-10-16T04:51:26;11.60;99.90
43043;DHT22;28667;50.758;6.096;2022-10-16T04:53:54;11.60;99.90
43043;DHT22;28667;50.758;6.096;2022-10-16T04:56:20;11.50;99.90
43043;DHT22;28667;50.758;6.096;2022-10-16T04:58:47;11.50;99.90
43043;DHT22;28667;50.758;6.096;2022-10-16T05:01:13;11.50;99.90
43043;DHT22;28667;50.758;6.096;2022-10-16T05:03:39;11.50;99.90
43043;DHT22;28667;50.758;6.096;2022-10-16T05:06:06;11.50;99.90
43043;DHT22;28667;50.758;6.096;2022-10-16T05:08:33;11.50;99.90
43043;DHT22;28667;50.758;6.096;2022-10-16T05:10:59;11.50;99.90
43043;DHT22;28667;50.758;6.096;2022-10-16T05:13:25;11.40;99.90
43043;DHT22;28667;50.758;6.096;2022-10-16T05:15:51;11.40;99.90
43043;DHT22;28667;50.758;6.096;2022-10-16T05:18:17;11.40;99.90
43043;DHT22;28667;50.758;6.096;2022-10-16T05:20:43;11.30;99.90
43043;DHT22;28667;50.758;6.096;2022-10-16T05:23:10;11.40;99.90
43043;DHT22;28667;50.758;6.096;2022-10-16T05:25:37;11.30;99.90
43043;DHT22;28667;50.758;6.096;2022-10-16T05:28:04;11.30;99.90
43043;DHT22;28667;50.758;6.096;2022-10-16T05:30:30;11.30;99.90
43043;DHT22;28667;50.758;6.096;2022-10-16T05:32:56;11.40;99.90
43043;DHT22;28667;50.758;6.096;2022-10-16T05:35:22;11.30;99.90
43043;DHT22;28667;50.758;6.096;2022-10-16T05:37:48;11.30;99.90
43043;DHT22;28667;50.758;6.096;2022-10-16T05:40:14;11.30;99.90
43043;DHT22;28667;50.758;6.096;2022-10-16T05:42:41;11.30;99.90
43043;DHT22;28667;50.758;6.096;2022-10-16T05:45:09;11.30;99.90
43043;DHT22;28667;50.758;6.096;2022-10-16T05:47:35;11.30;99.90
43043;DHT22;28667;50.758;6.096;2022-10-16T05:50:02;11.30;99.90
43043;DHT22;28667;50.758;6.096;2022-10-16T05:52:30;11.30;99.90
43043;DHT22;28667;50.758;6.096;2022-10-16T05:54:56;11.30;99.90
43043;DHT22;28667;50.758;6.096;2022-10-16T05:57:22;11.30;99.90
43043;DHT22;28667;50.758;6.096;2022-10-16T05:59:48;11.40;99.90
43043;DHT22;28667;50.758;6.096;2022-10-16T06:02:16;11.40;99.90
43043;DHT22;28667;50.758;6.096;2022-10-16T06:04:42;11.40;99.90
43043;DHT22;28667;50.758;6.096;2022-10-16T06:07:11;11.40;99.90
43043;DHT22;28667;50.758;6.096;2022-10-16T06:09:37;11.40;99.90
43043;DHT22;28667;50.758;6.096;2022-10-16T06:12:04;11.50;99.90
43043;DHT22;28667;50.758;6.096;2022-10-16T06:14:30;11.50;99.90
43043;DHT22;28667;50.758;6.096;2022-10-16T06:16:56;11.50;99.90
43043;DHT22;28667;50.758;6.096;2022-10-16T06:19:22;11.50;99.90
43043;DHT22;28667;50.758;6.096;2022-10-16T06:21:48;11.50;99.90
43043;DHT22;28667;50.758;6.096;2022-10-16T06:24:14;11.60;99.90
43043;DHT22;28667;50.758;6.096;2022-10-16T06:26:40;11.60;99.90
43043;DHT22;28667;50.758;6.096;2022-10-16T06:29:08;11.70;99.90
43043;DHT22;28667;50.758;6.096;2022-10-16T06:31:34;11.70;99.90
43043;DHT22;28667;50.758;6.096;2022-10-16T06:34:01;11.80;99.90
43043;DHT22;28667;50.758;6.096;2022-10-16T06:36:27;11.90;99.90
43043;DHT22;28667;50.758;6.096;2022-10-16T06:38:54;12.00;99.90
43043;DHT22;28667;50.758;6.096;2022-10-16T06:41:21;12.10;99.90
43043;DHT22;28667;50.758;6.096;2022-10-16T06:43:48;12.10;99.90
43043;DHT22;28667;50.758;6.096;2022-10-16T06:46:16;12.20;99.90
43043;DHT22;28667;50.758;6.096;2022-10-16T06:48:43;12.10;99.90
43043;DHT22;28667;50.758;6.096;2022-10-16T06:53:43;12.20;99.90
43043;DHT22;28667;50.758;6.096;2022-10-16T06:56:20;12.20;99.90
43043;DHT22;28667;50.758;6.096;2022-10-16T06:58:47;12.20;99.90
43043;DHT22;28667;50.758;6.096;2022-10-16T07:01:14;12.20;99.90
43043;DHT22;28667;50.758;6.096;2022-10-16T07:03:42;12.20;99.90
43043;DHT22;28667;50.758;6.096;2022-10-16T07:06:10;12.20;99.90
43043;DHT22;28667;50.758;6.096;2022-10-16T07:08:39;12.20;99.90
43043;DHT22;28667;50.758;6.096;2022-10-16T07:11:11;12.20;99.90
43043;DHT22;28667;50.758;6.096;2022-10-16T07:13:39;12.20;99.90
43043;DHT22;28667;50.758;6.096;2022-10-16T07:16:17;12.20;99.90
43043;DHT22;28667;50.758;6.096;2022-10-16T07:18:44;12.20;99.90
43043;DHT22;28667;50.758;6.096;2022-10-16T07:21:19;12.20;99.90
43043;DHT22;28667;50.758;6.096;2022-10-16T07:23:53;12.20;99.90
43043;DHT22;28667;50.758;6.096;2022-10-16T07:26:20;12.20;99.90
43043;DHT22;28667;50.758;6.096;2022-10-16T07:28:46;12.20;99.90
43043;DHT22;28667;50.758;6.096;2022-10-16T07:31:13;12.20;99.90
43043;DHT22;28667;50.758;6.096;2022-10-16T07:33:41;12.30;99.90
43043;DHT22;28667;50.758;6.096;2022-10-16T07:36:09;12.30;99.90
43043;DHT22;28667;50.758;6.096;2022-10-16T07:38:34;12.30;99.90
43043;DHT22;28667;50.758;6.096;2022-10-16T07:41:03;12.40;99.90
43043;DHT22;28667;50.758;6.096;2022-10-16T07:43:29;12.40;99.90
43043;DHT22;28667;50.758;6.096;2022-10-16T07:45:56;12.40;99.90
43043;DHT22;28667;50.758;6.096;2022-10-16T07:48:23;12.50;99.90
43043;DHT22;28667;50.758;6.096;2022-10-16T07:50:49;12.50;99.90
43043;DHT22;28667;50.758;6.096;2022-10-16T07:53:16;12.60;99.90
43043;DHT22;28667;50.758;6.096;2022-10-16T07:55:42;12.70;99.90
43043;DHT22;28667;50.758;6.096;2022-10-16T07:58:08;12.80;99.90
43043;DHT22;28667;50.758;6.096;2022-10-16T08:00:36;12.80;99.90
43043;DHT22;28667;50.758;6.096;2022-10-16T08:03:03;12.90;99.90
43043;DHT22;28667;50.758;6.096;2022-10-16T08:05:31;12.90;99.90
43043;DHT22;28667;50.758;6.096;2022-10-16T08:07:59;13.00;99.90
43043;DHT22;28667;50.758;6.096;2022-10-16T08:10:27;13.00;99.90
43043;DHT22;28667;50.758;6.096;2022-10-16T08:12:53;13.10;99.90
43043;DHT22;28667;50.758;6.096;2022-10-16T08:15:20;13.10;99.90
43043;DHT22;28667;50.758;6.096;2022-10-16T08:18:00;13.20;99.90
43043;DHT22;28667;50.758;6.096;2022-10-16T08:20:27;13.30;99.90
43043;DHT22;28667;50.758;6.096;2022-10-16T08:22:54;13.40;99.90
43043;DHT22;28667;50.758;6.096;2022-10-16T08:25:21;13.40;99.90
43043;DHT22;28667;50.758;6.096;2022-10-16T08:27:47;13.50;99.90
43043;DHT22;28667;50.758;6.096;2022-10-16T08:30:14;13.60;99.90
43043;DHT22;28667;50.758;6.096;2022-10-16T08:32:40;13.60;99.90
43043;DHT22;28667;50.758;6.096;2022-10-16T08:35:09;13.70;99.90
43043;DHT22;28667;50.758;6.096;2022-10-16T08:37:36;13.80;99.90
43043;DHT22;28667;50.758;6.096;2022-10-16T08:40:03;13.80;99.90
43043;DHT22;28667;50.758;6.096;2022-10-16T08:50:31;14.10;99.90
43043;DHT22;28667;50.758;6.096;2022-10-16T08:52:58;14.20;99.90
43043;DHT22;28667;50.758;6.096;2022-10-16T08:57:51;14.30;99.90
43043;DHT22;28667;50.758;6.096;2022-10-16T09:00:18;14.40;99.90
43043;DHT22;28667;50.758;6.096;2022-10-16T09:05:52;14.40;99.90
43043;DHT22;28667;50.758;6.096;2022-10-16T09:12:04;14.60;99.90
43043;DHT22;28667;50.758;6.096;2022-10-16T09:20:31;14.70;99.90
43043;DHT22;28667;50.758;6.096;2022-10-16T09:25:32;14.80;99.90
43043;DHT22;28667;50.758;6.096;2022-10-16T09:27:58;14.80;99.90
43043;DHT22;28667;50.758;6.096;2022-10-16T09:30:28;14.80;99.90
43043;DHT22;28667;50.758;6.096;2022-10-16T09:32:58;14.90;99.90
43043;DHT22;28667;50.758;6.096;2022-10-16T09:35:32;14.90;99.90
43043;DHT22;28667;50.758;6.096;2022-10-16T09:38:01;15.00;99.90
43043;DHT22;28667;50.758;6.096;2022-10-16T09:40:33;15.00;99.90
43043;DHT22;28667;50.758;6.096;2022-10-16T09:43:23;15.10;99.90
43043;DHT22;28667;50.758;6.096;2022-10-16T09:45:56;15.10;99.90
43043;DHT22;28667;50.758;6.096;2022-10-16T09:48:23;15.10;99.90
43043;DHT22;28667;50.758;6.096;2022-10-16T09:50:59;15.20;99.90
43043;DHT22;28667;50.758;6.096;2022-10-16T09:53:26;15.20;99.90
43043;DHT22;28667;50.758;6.096;2022-10-16T09:56:03;15.30;99.90
43043;DHT22;28667;50.758;6.096;2022-10-16T09:58:32;15.30;99.90
43043;DHT22;28667;50.758;6.096;2022-10-16T10:01:00;15.40;99.90
43043;DHT22;28667;50.758;6.096;2022-10-16T10:03:45;15.60;99.90
43043;DHT22;28667;50.758;6.096;2022-10-16T10:11:49;16.00;99.90
43043;DHT22;28667;50.758;6.096;2022-10-16T10:25:12;16.00;99.90
43043;DHT22;28667;50.758;6.096;2022-10-16T10:46:57;15.60;99.90
43043;DHT22;28667;50.758;6.096;2022-10-16T11:05:54;15.90;99.90
43043;DHT22;28667;50.758;6.096;2022-10-16T11:11:29;15.90;99.90
43043;DHT22;28667;50.758;6.096;2022-10-16T11:14:26;16.00;99.90
43043;DHT22;28667;50.758;6.096;2022-10-16T11:16:59;16.00;99.90
43043;DHT22;28667;50.758;6.096;2022-10-16T11:27:44;16.30;99.90
43043;DHT22;28667;50.758;6.096;2022-10-16T11:30:24;16.30;99.90
43043;DHT22;28667;50.758;6.096;2022-10-16T11:35:55;16.40;99.90
43043;DHT22;28667;50.758;6.096;2022-10-16T11:38:31;16.40;99.90
43043;DHT22;28667;50.758;6.096;2022-10-16T11:41:03;16.40;99.90
43043;DHT22;28667;50.758;6.096;2022-10-16T11:43:43;16.50;99.90
43043;DHT22;28667;50.758;6.096;2022-10-16T11:46:20;16.60;99.90
43043;DHT22;28667;50.758;6.096;2022-10-16T11:49:03;16.80;99.90
43043;DHT22;28667;50.758;6.096;2022-10-16T11:51:43;17.00;99.90
43043;DHT22;28667;50.758;6.096;2022-10-16T11:56:50;17.10;99.90
43043;DHT22;28667;50.758;6.096;2022-10-16T11:59:28;17.10;99.90
43043;DHT22;28667;50.758;6.096;2022-10-16T12:07:52;17.30;99.90
43043;DHT22;28667;50.758;6.096;2022-10-16T12:10:25;17.40;99.90
43043;DHT22;28667;50.758;6.096;2022-10-16T12:12:52;17.60;99.90
43043;DHT22;28667;50.758;6.096;2022-10-16T12:15:22;17.80;99.90
43043;DHT22;28667;50.758;6.096;2022-10-16T12:17:49;17.90;99.90
43043;DHT22;28667;50.758;6.096;2022-10-16T12:20:34;18.10;99.90
43043;DHT22;28667;50.758;6.096;2022-10-16T12:23:04;18.30;99.90
43043;DHT22;28667;50.758;6.096;2022-10-16T12:25:36;18.40;99.90
43043;DHT22;28667;50.758;6.096;2022-10-16T12:30:35;18.60;99.90
43043;DHT22;28667;50.758;6.096;2022-10-16T12:33:15;18.50;99.90
43043;DHT22;28667;50.758;6.096;2022-10-16T12:35:46;18.50;99.90
43043;DHT22;28667;50.758;6.096;2022-10-16T12:40:44;18.30;99.90
43043;DHT22;28667;50.758;6.096;2022-10-16T12:43:37;18.20;99.90
43043;DHT22;28667;50.758;6.096;2022-10-16T12:46:20;18.10;99.90
43043;DHT22;28667;50.758;6.096;2022-10-16T12:48:47;18.00;99.90
43043;DHT22;28667;50.758;6.096;2022-10-16T12:51:41;17.90;99.90
43043;DHT22;28667;50.758;6.096;2022-10-16T12:56:48;17.70;99.90
43043;DHT22;28667;50.758;6.096;2022-10-16T13:10:26;17.40;99.90
43043;DHT22;28667;50.758;6.096;2022-10-16T13:18:22;17.40;99.90
43043;DHT22;28667;50.758;6.096;2022-10-16T13:23:33;17.50;99.90
43043;DHT22;28667;50.758;6.096;2022-10-16T13:28:33;17.70;99.90
43043;DHT22;28667;50.758;6.096;2022-10-16T13:31:01;17.80;99.90
43043;DHT22;28667;50.758;6.096;2022-10-16T13:33:34;17.90;99.90
43043;DHT22;28667;50.758;6.096;2022-10-16T13:36:02;18.10;99.90
43043;DHT22;28667;50.758;6.096;2022-10-16T13:38:31;18.30;99.90
43043;DHT22;28667;50.758;6.096;2022-10-16T13:41:00;18.40;99.90
43043;DHT22;28667;50.758;6.096;2022-10-16T13:48:20;18.50;99.90
43043;DHT22;28667;50.758;6.096;2022-10-16T13:50:46;18.50;99.90
43043;DHT22;28667;50.758;6.096;2022-10-16T13:53:23;18.50;99.90
43043;DHT22;28667;50.758;6.096;2022-10-16T13:55:50;18.40;99.90
43043;DHT22;28667;50.758;6.096;2022-10-16T13:58:16;18.30;99.90
43043;DHT22;28667;50.758;6.096;2022-10-16T14:01:02;18.20;99.90
43043;DHT22;28667;50.758;6.096;2022-10-16T14:03:30;18.10;99.90
43043;DHT22;28667;50.758;6.096;2022-10-16T14:06:02;18.20;99.90
43043;DHT22;28667;50.758;6.096;2022-10-16T14:08:30;18.20;99.90
43043;DHT22;28667;50.758;6.096;2022-10-16T14:10:59;18.10;99.90
43043;DHT22;28667;50.758;6.096;2022-10-16T14:13:40;18.20;99.90
43043;DHT22;28667;50.758;6.096;2022-10-16T14:16:21;18.20;99.90
43043;DHT22;28667;50.758;6.096;2022-10-16T14:19:04;18.20;99.90
43043;DHT22;28667;50.758;6.096;2022-10-16T14:21:33;18.30;99.90
43043;DHT22;28667;50.758;6.096;2022-10-16T14:24:13;18.40;99.90
43043;DHT22;28667;50.758;6.096;2022-10-16T14:26:48;18.50;99.90
43043;DHT22;28667;50.758;6.096;2022-10-16T14:29:18;18.50;99.90
43043;DHT22;28667;50.758;6.096;2022-10-16T14:32:21;18.60;99.90
43043;DHT22;28667;50.758;6.096;2022-10-16T14:34:53;18.60;99.90
43043;DHT22;28667;50.758;6.096;2022-10-16T14:37:27;18.70;99.90
43043;DHT22;28667;50.758;6.096;2022-10-16T14:39:55;18.70;99.90
43043;DHT22;28667;50.758;6.096;2022-10-16T14:42:23;18.70;99.90
43043;DHT22;28667;50.758;6.096;2022-10-16T14:44:51;18.70;99.90
43043;DHT22;28667;50.758;6.096;2022-10-16T14:47:21;18.70;99.90
43043;DHT22;28667;50.758;6.096;2022-10-16T14:49:51;18.70;99.90
43043;DHT22;28667;50.758;6.096;2022-10-16T14:52:18;18.80;99.90
43043;DHT22;28667;50.758;6.096;2022-10-16T14:54:49;18.80;99.90
43043;DHT22;28667;50.758;6.096;2022-10-16T14:57:20;18.70;99.90
43043;DHT22;28667;50.758;6.096;2022-10-16T14:59:47;18.70;99.90
43043;DHT22;28667;50.758;6.096;2022-10-16T15:04:47;18.50;99.90
43043;DHT22;28667;50.758;6.096;2022-10-16T15:07:13;18.50;99.90
43043;DHT22;28667;50.758;6.096;2022-10-16T15:09:39;18.40;99.90
43043;DHT22;28667;50.758;6.096;2022-10-16T15:12:05;18.40;99.90
43043;DHT22;28667;50.758;6.096;2022-10-16T15:14:32;18.30;99.90
43043;DHT22;28667;50.758;6.096;2022-10-16T15:16:58;18.20;99.90
43043;DHT22;28667;50.758;6.096;2022-10-16T15:19:24;18.20;99.90
43043;DHT22;28667;50.758;6.096;2022-10-16T15:21:50;18.10;99.90
43043;DHT22;28667;50.758;6.096;2022-10-16T15:24:16;18.10;99.90
43043;DHT22;28667;50.758;6.096;2022-10-16T15:26:42;18.10;99.90
43043;DHT22;28667;50.758;6.096;2022-10-16T15:29:08;18.10;99.90
43043;DHT22;28667;50.758;6.096;2022-10-16T15:31:35;18.10;99.90
43043;DHT22;28667;50.758;6.096;2022-10-16T15:34:01;18.10;99.90
43043;DHT22;28667;50.758;6.096;2022-10-16T15:36:35;18.00;99.90
43043;DHT22;28667;50.758;6.096;2022-10-16T15:39:03;17.90;99.90
43043;DHT22;28667;50.758;6.096;2022-10-16T15:41:30;17.80;99.90
43043;DHT22;28667;50.758;6.096;2022-10-16T15:43:56;17.80;99.90
43043;DHT22;28667;50.758;6.096;2022-10-16T15:46:23;17.70;99.90
43043;DHT22;28667;50.758;6.096;2022-10-16T15:48:51;17.70;99.90
43043;DHT22;28667;50.758;6.096;2022-10-16T15:51:21;17.60;99.90
43043;DHT22;28667;50.758;6.096;2022-10-16T15:53:47;17.60;99.90
43043;DHT22;28667;50.758;6.096;2022-10-16T15:56:13;17.50;99.90
43043;DHT22;28667;50.758;6.096;2022-10-16T15:58:40;17.50;99.90
43043;DHT22;28667;50.758;6.096;2022-10-16T16:01:06;17.40;99.90
43043;DHT22;28667;50.758;6.096;2022-10-16T16:03:35;17.40;99.90
43043;DHT22;28667;50.758;6.096;2022-10-16T16:06:09;17.30;99.90
43043;DHT22;28667;50.758;6.096;2022-10-16T16:08:36;17.30;99.90
43043;DHT22;28667;50.758;6.096;2022-10-16T16:11:11;17.20;99.90
43043;DHT22;28667;50.758;6.096;2022-10-16T16:13:37;17.20;99.90
43043;DHT22;28667;50.758;6.096;2022-10-16T16:16:09;17.10;99.90
43043;DHT22;28667;50.758;6.096;2022-10-16T16:18:36;17.00;99.90
43043;DHT22;28667;50.758;6.096;2022-10-16T16:21:02;17.00;99.90
43043;DHT22;28667;50.758;6.096;2022-10-16T16:23:28;16.90;99.90
43043;DHT22;28667;50.758;6.096;2022-10-16T16:28:40;16.80;99.90
43043;DHT22;28667;50.758;6.096;2022-10-16T16:31:07;16.70;99.90
43043;DHT22;28667;50.758;6.096;2022-10-16T16:33:33;16.60;99.90
43043;DHT22;28667;50.758;6.096;2022-10-16T16:36:01;16.60;99.90
43043;DHT22;28667;50.758;6.096;2022-10-16T16:38:28;16.50;99.90
43043;DHT22;28667;50.758;6.096;2022-10-16T16:40:54;16.50;99.90
43043;DHT22;28667;50.758;6.096;2022-10-16T16:43:25;16.40;99.90
43043;DHT22;28667;50.758;6.096;2022-10-16T16:45:51;16.40;99.90
43043;DHT22;28667;50.758;6.096;2022-10-16T16:48:18;16.30;99.90
43043;DHT22;28667;50.758;6.096;2022-10-16T16:50:44;16.20;99.90
43043;DHT22;28667;50.758;6.096;2022-10-16T16:53:10;16.20;99.90
43043;DHT22;28667;50.758;6.096;2022-10-16T16:55:36;16.10;99.90
43043;DHT22;28667;50.758;6.096;2022-10-16T16:58:02;16.10;99.90
43043;DHT22;28667;50.758;6.096;2022-10-16T17:00:29;16.10;99.90
43043;DHT22;28667;50.758;6.096;2022-10-16T17:02:57;16.00;99.90
43043;DHT22;28667;50.758;6.096;2022-10-16T17:05:22;16.00;99.90
43043;DHT22;28667;50.758;6.096;2022-10-16T17:07:48;16.00;99.90
43043;DHT22;28667;50.758;6.096;2022-10-16T17:10:15;16.00;99.90
43043;DHT22;28667;50.758;6.096;2022-10-16T17:12:41;15.90;99.90
43043;DHT22;28667;50.758;6.096;2022-10-16T17:15:08;15.90;99.90
43043;DHT22;28667;50.758;6.096;2022-10-16T17:17:34;15.90;99.90
43043;DHT22;28667;50.758;6.096;2022-10-16T17:20:00;15.90;99.90
43043;DHT22;28667;50.758;6.096;2022-10-16T17:22:26;15.90;99.90
43043;DHT22;28667;50.758;6.096;2022-10-16T17:24:52;15.90;99.90
43043;DHT22;28667;50.758;6.096;2022-10-16T17:27:20;15.80;99.90
43043;DHT22;28667;50.758;6.096;2022-10-16T17:29:50;15.80;99.90
43043;DHT22;28667;50.758;6.096;2022-10-16T17:32:17;15.80;99.90
43043;DHT22;28667;50.758;6.096;2022-10-16T17:34:45;15.70;99.90
43043;DHT22;28667;50.758;6.096;2022-10-16T17:37:11;15.70;99.90
43043;DHT22;28667;50.758;6.096;2022-10-16T17:39:37;15.70;99.90
43043;DHT22;28667;50.758;6.096;2022-10-16T17:42:03;15.70;99.90
43043;DHT22;28667;50.758;6.096;2022-10-16T17:44:30;15.60;99.90
43043;DHT22;28667;50.758;6.096;2022-10-16T17:46:56;15.60;99.90
43043;DHT22;28667;50.758;6.096;2022-10-16T17:49:22;15.60;99.90
43043;DHT22;28667;50.758;6.096;2022-10-16T17:51:50;15.60;99.90
43043;DHT22;28667;50.758;6.096;2022-10-16T17:54:17;15.60;99.90
43043;DHT22;28667;50.758;6.096;2022-10-16T17:56:43;15.50;99.90
43043;DHT22;28667;50.758;6.096;2022-10-16T17:59:10;15.50;99.90
43043;DHT22;28667;50.758;6.096;2022-10-16T18:01:38;15.40;99.90
43043;DHT22;28667;50.758;6.096;2022-10-16T18:04:11;15.40;99.90
43043;DHT22;28667;50.758;6.096;2022-10-16T18:06:38;15.40;99.90
43043;DHT22;28667;50.758;6.096;2022-10-16T18:09:07;15.40;99.90
43043;DHT22;28667;50.758;6.096;2022-10-16T18:11:34;15.40;99.90
43043;DHT22;28667;50.758;6.096;2022-10-16T18:14:00;15.40;99.90